sensor_id;sensor_type;location;lat;lon;timestamp;P1;durP1;ratioP1;P2;durP2;ratioP2
32705;SDS011;19094;50.972;3.538;2023-12-14T00:02:11;82.63;;;35.17;;
32705;SDS011;19094;50.972;3.538;2023-12-14T00:04:37;85.20;;;34.92;;
32705;SDS011;19094;50.972;3.538;2023-12-14T00:07:03;85.22;;;35.08;;
32705;SDS011;19094;50.972;3.538;2023-12-14T00:09:29;73.72;;;33.80;;
32705;SDS011;19094;50.972;3.538;2023-12-14T00:11:54;81.63;;;35.10;;
32705;SDS011;19094;50.972;3.538;2023-12-14T00:14:20;72.45;;;34.80;;
32705;SDS011;19094;50.972;3.538;2023-12-14T00:16:46;79.25;;;36.15;;
32705;SDS011;19094;50.972;3.538;2023-12-14T00:19:12;81.57;;;34.05;;
32705;SDS011;19094;50.972;3.538;2023-12-14T00:21:37;75.20;;;34.00;;
32705;SDS011;19094;50.972;3.538;2023-12-14T00:24:03;77.15;;;34.38;;
32705;SDS011;19094;50.972;3.538;2023-12-14T00:26:29;72.10;;;34.60;;
32705;SDS011;19094;50.972;3.538;2023-12-14T00:28:55;75.03;;;34.15;;
32705;SDS011;19094;50.972;3.538;2023-12-14T00:31:21;72.55;;;35.58;;
32705;SDS011;19094;50.972;3.538;2023-12-14T00:33:47;77.38;;;33.40;;
32705;SDS011;19094;50.972;3.538;2023-12-14T00:36:21;74.95;;;34.17;;
32705;SDS011;19094;50.972;3.538;2023-12-14T00:38:47;79.35;;;35.05;;
32705;SDS011;19094;50.972;3.538;2023-12-14T00:41:13;70.18;;;35.13;;
32705;SDS011;19094;50.972;3.538;2023-12-14T00:43:38;72.38;;;33.58;;
32705;SDS011;19094;50.972;3.538;2023-12-14T00:46:04;75.93;;;35.45;;
32705;SDS011;19094;50.972;3.538;2023-12-14T00:48:30;70.07;;;34.85;;
32705;SDS011;19094;50.972;3.538;2023-12-14T00:50:55;72.25;;;33.80;;
32705;SDS011;19094;50.972;3.538;2023-12-14T00:53:21;71.90;;;34.30;;
32705;SDS011;19094;50.972;3.538;2023-12-14T00:55:47;65.97;;;34.15;;
32705;SDS011;19094;50.972;3.538;2023-12-14T00:58:13;69.82;;;33.80;;
32705;SDS011;19094;50.972;3.538;2023-12-14T01:00:38;65.90;;;32.90;;
32705;SDS011;19094;50.972;3.538;2023-12-14T01:03:04;60.38;;;29.63;;
32705;SDS011;19094;50.972;3.538;2023-12-14T01:05:30;62.72;;;30.05;;
32705;SDS011;19094;50.972;3.538;2023-12-14T01:07:56;55.33;;;28.73;;
32705;SDS011;19094;50.972;3.538;2023-12-14T01:10:21;55.53;;;26.35;;
32705;SDS011;19094;50.972;3.538;2023-12-14T01:12:47;50.55;;;24.60;;
32705;SDS011;19094;50.972;3.538;2023-12-14T01:15:13;45.40;;;23.92;;
32705;SDS011;19094;50.972;3.538;2023-12-14T01:17:39;44.05;;;23.55;;
32705;SDS011;19094;50.972;3.538;2023-12-14T01:20:05;38.88;;;20.58;;
32705;SDS011;19094;50.972;3.538;2023-12-14T01:22:32;37.33;;;17.90;;
32705;SDS011;19094;50.972;3.538;2023-12-14T01:24:58;36.15;;;18.05;;
32705;SDS011;19094;50.972;3.538;2023-12-14T01:27:24;32.47;;;17.65;;
32705;SDS011;19094;50.972;3.538;2023-12-14T01:29:50;37.17;;;18.08;;
32705;SDS011;19094;50.972;3.538;2023-12-14T01:32:16;30.20;;;17.50;;
32705;SDS011;19094;50.972;3.538;2023-12-14T01:34:42;30.65;;;17.65;;
32705;SDS011;19094;50.972;3.538;2023-12-14T01:37:08;31.35;;;17.15;;
32705;SDS011;19094;50.972;3.538;2023-12-14T01:39:33;30.48;;;17.67;;
32705;SDS011;19094;50.972;3.538;2023-12-14T01:41:59;40.78;;;17.98;;
32705;SDS011;19094;50.972;3.538;2023-12-14T01:44:25;30.63;;;16.90;;
32705;SDS011;19094;50.972;3.538;2023-12-14T01:46:51;36.45;;;17.00;;
32705;SDS011;19094;50.972;3.538;2023-12-14T01:49:17;31.58;;;16.20;;
32705;SDS011;19094;50.972;3.538;2023-12-14T01:51:42;22.95;;;12.45;;
32705;SDS011;19094;50.972;3.538;2023-12-14T01:54:08;21.15;;;13.57;;
32705;SDS011;19094;50.972;3.538;2023-12-14T01:56:34;23.25;;;13.35;;
32705;SDS011;19094;50.972;3.538;2023-12-14T01:59:00;21.92;;;13.02;;
32705;SDS011;19094;50.972;3.538;2023-12-14T02:04:03;21.40;;;12.88;;
32705;SDS011;19094;50.972;3.538;2023-12-14T02:06:31;26.23;;;13.60;;
32705;SDS011;19094;50.972;3.538;2023-12-14T02:08:57;22.42;;;12.63;;
32705;SDS011;19094;50.972;3.538;2023-12-14T02:11:23;21.38;;;12.35;;
32705;SDS011;19094;50.972;3.538;2023-12-14T02:13:49;21.40;;;12.48;;
32705;SDS011;19094;50.972;3.538;2023-12-14T02:16:14;18.25;;;11.13;;
32705;SDS011;19094;50.972;3.538;2023-12-14T02:18:40;19.55;;;11.75;;
32705;SDS011;19094;50.972;3.538;2023-12-14T02:21:06;20.92;;;11.25;;
32705;SDS011;19094;50.972;3.538;2023-12-14T02:23:32;19.52;;;11.20;;
32705;SDS011;19094;50.972;3.538;2023-12-14T02:25:59;21.20;;;11.23;;
32705;SDS011;19094;50.972;3.538;2023-12-14T02:28:26;25.85;;;11.10;;
32705;SDS011;19094;50.972;3.538;2023-12-14T02:30:52;18.40;;;11.23;;
32705;SDS011;19094;50.972;3.538;2023-12-14T02:33:18;22.00;;;10.93;;
32705;SDS011;19094;50.972;3.538;2023-12-14T02:35:43;18.90;;;9.68;;
32705;SDS011;19094;50.972;3.538;2023-12-14T02:38:09;23.42;;;10.02;;
32705;SDS011;19094;50.972;3.538;2023-12-14T02:40:35;15.50;;;9.82;;
32705;SDS011;19094;50.972;3.538;2023-12-14T02:43:01;19.20;;;9.63;;
32705;SDS011;19094;50.972;3.538;2023-12-14T02:45:26;15.80;;;8.55;;
32705;SDS011;19094;50.972;3.538;2023-12-14T02:47:55;14.45;;;7.85;;
32705;SDS011;19094;50.972;3.538;2023-12-14T02:50:21;11.02;;;6.78;;
32705;SDS011;19094;50.972;3.538;2023-12-14T02:52:47;13.90;;;7.03;;
32705;SDS011;19094;50.972;3.538;2023-12-14T02:55:13;13.88;;;7.38;;
32705;SDS011;19094;50.972;3.538;2023-12-14T02:57:38;14.27;;;7.32;;
32705;SDS011;19094;50.972;3.538;2023-12-14T03:00:05;14.60;;;7.00;;
32705;SDS011;19094;50.972;3.538;2023-12-14T03:02:31;16.42;;;6.90;;
32705;SDS011;19094;50.972;3.538;2023-12-14T03:04:56;13.02;;;7.15;;
32705;SDS011;19094;50.972;3.538;2023-12-14T03:07:22;16.50;;;6.95;;
32705;SDS011;19094;50.972;3.538;2023-12-14T03:09:48;20.00;;;7.10;;
32705;SDS011;19094;50.972;3.538;2023-12-14T03:12:14;12.27;;;6.75;;
32705;SDS011;19094;50.972;3.538;2023-12-14T03:14:40;14.13;;;7.38;;
32705;SDS011;19094;50.972;3.538;2023-12-14T03:17:06;18.38;;;6.63;;
32705;SDS011;19094;50.972;3.538;2023-12-14T03:19:38;12.70;;;6.82;;
32705;SDS011;19094;50.972;3.538;2023-12-14T03:22:04;11.90;;;6.28;;
32705;SDS011;19094;50.972;3.538;2023-12-14T03:24:30;16.05;;;5.93;;
32705;SDS011;19094;50.972;3.538;2023-12-14T03:26:56;13.18;;;6.10;;
32705;SDS011;19094;50.972;3.538;2023-12-14T03:29:22;12.25;;;5.57;;
32705;SDS011;19094;50.972;3.538;2023-12-14T03:31:48;12.88;;;5.00;;
32705;SDS011;19094;50.972;3.538;2023-12-14T03:34:13;11.23;;;5.10;;
32705;SDS011;19094;50.972;3.538;2023-12-14T03:36:39;13.02;;;5.25;;
32705;SDS011;19094;50.972;3.538;2023-12-14T03:39:05;11.93;;;5.28;;
32705;SDS011;19094;50.972;3.538;2023-12-14T03:41:31;10.25;;;5.20;;
32705;SDS011;19094;50.972;3.538;2023-12-14T03:43:57;12.02;;;5.25;;
32705;SDS011;19094;50.972;3.538;2023-12-14T03:46:23;16.30;;;5.72;;
32705;SDS011;19094;50.972;3.538;2023-12-14T03:48:49;12.18;;;5.05;;
32705;SDS011;19094;50.972;3.538;2023-12-14T03:51:18;10.38;;;5.03;;
32705;SDS011;19094;50.972;3.538;2023-12-14T03:53:45;10.93;;;4.93;;
32705;SDS011;19094;50.972;3.538;2023-12-14T03:56:11;11.82;;;4.65;;
32705;SDS011;19094;50.972;3.538;2023-12-14T03:58:37;12.63;;;5.20;;
32705;SDS011;19094;50.972;3.538;2023-12-14T04:01:02;9.30;;;4.85;;
32705;SDS011;19094;50.972;3.538;2023-12-14T04:03:29;12.15;;;5.25;;
32705;SDS011;19094;50.972;3.538;2023-12-14T04:05:55;9.05;;;4.68;;
32705;SDS011;19094;50.972;3.538;2023-12-14T04:08:22;15.02;;;5.00;;
32705;SDS011;19094;50.972;3.538;2023-12-14T04:10:48;9.90;;;5.22;;
32705;SDS011;19094;50.972;3.538;2023-12-14T04:13:14;13.10;;;5.13;;
32705;SDS011;19094;50.972;3.538;2023-12-14T04:15:40;10.88;;;5.22;;
32705;SDS011;19094;50.972;3.538;2023-12-14T04:18:07;8.40;;;4.90;;
32705;SDS011;19094;50.972;3.538;2023-12-14T04:20:33;13.23;;;5.50;;
32705;SDS011;19094;50.972;3.538;2023-12-14T04:23:19;19.02;;;5.25;;
32705;SDS011;19094;50.972;3.538;2023-12-14T04:25:45;9.10;;;4.90;;
32705;SDS011;19094;50.972;3.538;2023-12-14T04:28:11;10.73;;;5.57;;
32705;SDS011;19094;50.972;3.538;2023-12-14T04:30:36;15.40;;;4.95;;
32705;SDS011;19094;50.972;3.538;2023-12-14T04:33:02;13.38;;;5.45;;
32705;SDS011;19094;50.972;3.538;2023-12-14T04:35:28;12.45;;;5.25;;
32705;SDS011;19094;50.972;3.538;2023-12-14T04:37:55;10.85;;;5.03;;
32705;SDS011;19094;50.972;3.538;2023-12-14T04:40:21;11.82;;;5.15;;
32705;SDS011;19094;50.972;3.538;2023-12-14T04:42:46;14.40;;;5.60;;
32705;SDS011;19094;50.972;3.538;2023-12-14T04:45:12;19.65;;;5.05;;
32705;SDS011;19094;50.972;3.538;2023-12-14T04:47:38;12.65;;;5.57;;
32705;SDS011;19094;50.972;3.538;2023-12-14T04:50:05;12.82;;;4.65;;
32705;SDS011;19094;50.972;3.538;2023-12-14T04:52:31;15.48;;;5.30;;
32705;SDS011;19094;50.972;3.538;2023-12-14T04:54:57;14.05;;;5.40;;
32705;SDS011;19094;50.972;3.538;2023-12-14T04:57:24;10.68;;;5.22;;
32705;SDS011;19094;50.972;3.538;2023-12-14T04:59:49;15.82;;;5.72;;
32705;SDS011;19094;50.972;3.538;2023-12-14T05:02:15;15.57;;;5.25;;
32705;SDS011;19094;50.972;3.538;2023-12-14T05:04:41;16.73;;;6.03;;
32705;SDS011;19094;50.972;3.538;2023-12-14T05:07:06;17.75;;;5.82;;
32705;SDS011;19094;50.972;3.538;2023-12-14T05:09:32;16.25;;;5.70;;
32705;SDS011;19094;50.972;3.538;2023-12-14T05:11:58;17.77;;;6.15;;
32705;SDS011;19094;50.972;3.538;2023-12-14T05:14:24;20.05;;;5.90;;
32705;SDS011;19094;50.972;3.538;2023-12-14T05:16:49;17.38;;;6.32;;
32705;SDS011;19094;50.972;3.538;2023-12-14T05:19:16;19.45;;;6.75;;
32705;SDS011;19094;50.972;3.538;2023-12-14T05:21:42;13.18;;;5.55;;
32705;SDS011;19094;50.972;3.538;2023-12-14T05:24:07;16.70;;;6.22;;
32705;SDS011;19094;50.972;3.538;2023-12-14T05:26:34;14.75;;;7.05;;
32705;SDS011;19094;50.972;3.538;2023-12-14T05:29:00;19.02;;;7.03;;
32705;SDS011;19094;50.972;3.538;2023-12-14T05:31:29;19.00;;;7.45;;
32705;SDS011;19094;50.972;3.538;2023-12-14T05:33:55;16.73;;;7.20;;
32705;SDS011;19094;50.972;3.538;2023-12-14T05:36:21;13.40;;;6.80;;
32705;SDS011;19094;50.972;3.538;2023-12-14T05:38:47;16.20;;;7.95;;
32705;SDS011;19094;50.972;3.538;2023-12-14T05:41:14;14.85;;;7.35;;
32705;SDS011;19094;50.972;3.538;2023-12-14T05:43:40;17.13;;;6.50;;
32705;SDS011;19094;50.972;3.538;2023-12-14T05:46:06;16.85;;;6.55;;
32705;SDS011;19094;50.972;3.538;2023-12-14T05:48:32;13.98;;;7.38;;
32705;SDS011;19094;50.972;3.538;2023-12-14T05:50:59;12.95;;;6.55;;
32705;SDS011;19094;50.972;3.538;2023-12-14T05:53:26;19.13;;;6.90;;
32705;SDS011;19094;50.972;3.538;2023-12-14T05:55:52;13.45;;;6.85;;
32705;SDS011;19094;50.972;3.538;2023-12-14T05:58:19;17.92;;;7.10;;
32705;SDS011;19094;50.972;3.538;2023-12-14T06:00:44;15.50;;;7.68;;
32705;SDS011;19094;50.972;3.538;2023-12-14T06:03:10;14.50;;;6.93;;
32705;SDS011;19094;50.972;3.538;2023-12-14T06:05:36;12.40;;;6.13;;
32705;SDS011;19094;50.972;3.538;2023-12-14T06:08:02;18.58;;;7.63;;
32705;SDS011;19094;50.972;3.538;2023-12-14T06:10:27;17.17;;;6.82;;
32705;SDS011;19094;50.972;3.538;2023-12-14T06:12:54;15.50;;;7.15;;
32705;SDS011;19094;50.972;3.538;2023-12-14T06:15:20;17.23;;;7.72;;
32705;SDS011;19094;50.972;3.538;2023-12-14T06:17:45;24.75;;;7.90;;
32705;SDS011;19094;50.972;3.538;2023-12-14T06:20:11;23.20;;;6.78;;
32705;SDS011;19094;50.972;3.538;2023-12-14T06:22:37;15.88;;;6.30;;
32705;SDS011;19094;50.972;3.538;2023-12-14T06:25:03;14.80;;;6.88;;
32705;SDS011;19094;50.972;3.538;2023-12-14T06:27:29;18.00;;;7.10;;
32705;SDS011;19094;50.972;3.538;2023-12-14T06:29:55;15.15;;;6.88;;
32705;SDS011;19094;50.972;3.538;2023-12-14T06:32:24;14.50;;;7.03;;
32705;SDS011;19094;50.972;3.538;2023-12-14T06:34:50;18.02;;;7.20;;
32705;SDS011;19094;50.972;3.538;2023-12-14T06:37:16;15.73;;;6.72;;
32705;SDS011;19094;50.972;3.538;2023-12-14T06:39:42;14.93;;;6.13;;
32705;SDS011;19094;50.972;3.538;2023-12-14T06:42:08;23.38;;;6.38;;
32705;SDS011;19094;50.972;3.538;2023-12-14T06:44:34;16.40;;;6.10;;
32705;SDS011;19094;50.972;3.538;2023-12-14T06:46:59;14.38;;;6.43;;
32705;SDS011;19094;50.972;3.538;2023-12-14T06:49:25;14.93;;;6.80;;
32705;SDS011;19094;50.972;3.538;2023-12-14T06:51:51;22.90;;;6.97;;
32705;SDS011;19094;50.972;3.538;2023-12-14T06:54:17;15.88;;;7.18;;
32705;SDS011;19094;50.972;3.538;2023-12-14T06:56:43;18.00;;;7.05;;
32705;SDS011;19094;50.972;3.538;2023-12-14T06:59:09;14.98;;;7.07;;
32705;SDS011;19094;50.972;3.538;2023-12-14T07:01:35;20.40;;;8.13;;
32705;SDS011;19094;50.972;3.538;2023-12-14T07:04:02;17.60;;;8.25;;
32705;SDS011;19094;50.972;3.538;2023-12-14T07:06:28;23.38;;;7.63;;
32705;SDS011;19094;50.972;3.538;2023-12-14T07:08:54;19.52;;;7.00;;
32705;SDS011;19094;50.972;3.538;2023-12-14T07:11:20;13.30;;;6.85;;
32705;SDS011;19094;50.972;3.538;2023-12-14T07:13:46;14.18;;;7.25;;
32705;SDS011;19094;50.972;3.538;2023-12-14T07:16:12;17.80;;;7.30;;
32705;SDS011;19094;50.972;3.538;2023-12-14T07:18:40;14.63;;;7.32;;
32705;SDS011;19094;50.972;3.538;2023-12-14T07:21:06;19.08;;;7.72;;
32705;SDS011;19094;50.972;3.538;2023-12-14T07:23:34;17.02;;;7.22;;
32705;SDS011;19094;50.972;3.538;2023-12-14T07:26:01;24.58;;;8.30;;
32705;SDS011;19094;50.972;3.538;2023-12-14T07:28:27;20.38;;;9.55;;
32705;SDS011;19094;50.972;3.538;2023-12-14T07:30:53;16.58;;;7.90;;
32705;SDS011;19094;50.972;3.538;2023-12-14T07:33:20;15.70;;;8.40;;
32705;SDS011;19094;50.972;3.538;2023-12-14T07:35:46;16.92;;;8.38;;
32705;SDS011;19094;50.972;3.538;2023-12-14T07:38:11;22.95;;;8.52;;
32705;SDS011;19094;50.972;3.538;2023-12-14T07:40:38;18.88;;;8.32;;
32705;SDS011;19094;50.972;3.538;2023-12-14T07:43:05;21.08;;;9.32;;
32705;SDS011;19094;50.972;3.538;2023-12-14T07:45:31;16.38;;;7.20;;
32705;SDS011;19094;50.972;3.538;2023-12-14T07:47:57;15.13;;;7.35;;
32705;SDS011;19094;50.972;3.538;2023-12-14T07:50:23;19.85;;;7.80;;
32705;SDS011;19094;50.972;3.538;2023-12-14T07:52:50;18.88;;;8.48;;
32705;SDS011;19094;50.972;3.538;2023-12-14T07:55:16;16.10;;;7.75;;
32705;SDS011;19094;50.972;3.538;2023-12-14T07:57:42;17.23;;;8.13;;
32705;SDS011;19094;50.972;3.538;2023-12-14T08:00:08;20.35;;;7.63;;
32705;SDS011;19094;50.972;3.538;2023-12-14T08:02:35;21.38;;;7.75;;
32705;SDS011;19094;50.972;3.538;2023-12-14T08:05:01;23.58;;;8.10;;
32705;SDS011;19094;50.972;3.538;2023-12-14T08:07:27;24.48;;;8.55;;
32705;SDS011;19094;50.972;3.538;2023-12-14T08:09:57;26.65;;;9.85;;
32705;SDS011;19094;50.972;3.538;2023-12-14T08:12:23;21.33;;;9.70;;
32705;SDS011;19094;50.972;3.538;2023-12-14T08:14:50;16.95;;;8.63;;
32705;SDS011;19094;50.972;3.538;2023-12-14T08:17:16;20.25;;;9.70;;
32705;SDS011;19094;50.972;3.538;2023-12-14T08:19:43;19.83;;;9.45;;
32705;SDS011;19094;50.972;3.538;2023-12-14T08:22:09;18.38;;;8.45;;
32705;SDS011;19094;50.972;3.538;2023-12-14T08:24:41;18.75;;;8.32;;
32705;SDS011;19094;50.972;3.538;2023-12-14T08:27:07;15.52;;;7.97;;
32705;SDS011;19094;50.972;3.538;2023-12-14T08:29:33;14.38;;;7.15;;
32705;SDS011;19094;50.972;3.538;2023-12-14T08:31:59;15.98;;;7.28;;
32705;SDS011;19094;50.972;3.538;2023-12-14T08:34:25;23.05;;;8.15;;
32705;SDS011;19094;50.972;3.538;2023-12-14T08:36:52;28.85;;;9.95;;
32705;SDS011;19094;50.972;3.538;2023-12-14T08:39:18;16.25;;;8.45;;
32705;SDS011;19094;50.972;3.538;2023-12-14T08:41:45;12.85;;;7.07;;
32705;SDS011;19094;50.972;3.538;2023-12-14T08:44:12;23.35;;;7.60;;
32705;SDS011;19094;50.972;3.538;2023-12-14T08:46:42;15.02;;;7.22;;
32705;SDS011;19094;50.972;3.538;2023-12-14T08:49:09;22.95;;;8.25;;
32705;SDS011;19094;50.972;3.538;2023-12-14T08:51:38;19.60;;;7.88;;
32705;SDS011;19094;50.972;3.538;2023-12-14T08:54:05;26.42;;;8.27;;
32705;SDS011;19094;50.972;3.538;2023-12-14T08:56:31;16.88;;;7.95;;
32705;SDS011;19094;50.972;3.538;2023-12-14T08:58:58;20.20;;;10.20;;
32705;SDS011;19094;50.972;3.538;2023-12-14T09:01:25;24.10;;;9.43;;
32705;SDS011;19094;50.972;3.538;2023-12-14T09:03:51;24.90;;;10.18;;
32705;SDS011;19094;50.972;3.538;2023-12-14T09:06:17;21.38;;;8.82;;
32705;SDS011;19094;50.972;3.538;2023-12-14T09:08:44;19.40;;;8.27;;
32705;SDS011;19094;50.972;3.538;2023-12-14T09:11:10;19.65;;;8.18;;
32705;SDS011;19094;50.972;3.538;2023-12-14T09:13:36;20.92;;;7.85;;
32705;SDS011;19094;50.972;3.538;2023-12-14T09:16:02;15.82;;;8.27;;
32705;SDS011;19094;50.972;3.538;2023-12-14T09:18:28;21.70;;;8.38;;
32705;SDS011;19094;50.972;3.538;2023-12-14T09:20:53;20.55;;;9.20;;
32705;SDS011;19094;50.972;3.538;2023-12-14T09:23:19;21.23;;;8.63;;
32705;SDS011;19094;50.972;3.538;2023-12-14T09:25:45;19.77;;;7.40;;
32705;SDS011;19094;50.972;3.538;2023-12-14T09:28:11;18.20;;;8.57;;
32705;SDS011;19094;50.972;3.538;2023-12-14T09:30:37;23.73;;;9.20;;
32705;SDS011;19094;50.972;3.538;2023-12-14T09:33:03;19.15;;;9.00;;
32705;SDS011;19094;50.972;3.538;2023-12-14T09:35:29;19.83;;;9.35;;
32705;SDS011;19094;50.972;3.538;2023-12-14T09:37:55;25.58;;;11.05;;
32705;SDS011;19094;50.972;3.538;2023-12-14T09:40:21;25.88;;;11.90;;
32705;SDS011;19094;50.972;3.538;2023-12-14T09:42:48;24.30;;;11.75;;
32705;SDS011;19094;50.972;3.538;2023-12-14T09:45:13;28.73;;;12.35;;
32705;SDS011;19094;50.972;3.538;2023-12-14T09:47:42;24.63;;;11.88;;
32705;SDS011;19094;50.972;3.538;2023-12-14T09:50:09;22.00;;;11.38;;
32705;SDS011;19094;50.972;3.538;2023-12-14T09:52:35;27.33;;;12.15;;
32705;SDS011;19094;50.972;3.538;2023-12-14T09:55:02;25.90;;;11.35;;
32705;SDS011;19094;50.972;3.538;2023-12-14T09:57:29;20.77;;;10.95;;
32705;SDS011;19094;50.972;3.538;2023-12-14T09:59:55;25.35;;;11.65;;
32705;SDS011;19094;50.972;3.538;2023-12-14T10:02:24;28.90;;;10.80;;
32705;SDS011;19094;50.972;3.538;2023-12-14T10:04:52;24.30;;;11.10;;
32705;SDS011;19094;50.972;3.538;2023-12-14T10:07:18;20.45;;;9.73;;
32705;SDS011;19094;50.972;3.538;2023-12-14T10:09:45;20.40;;;10.35;;
32705;SDS011;19094;50.972;3.538;2023-12-14T10:12:10;16.45;;;9.77;;
32705;SDS011;19094;50.972;3.538;2023-12-14T10:14:36;20.15;;;9.73;;
32705;SDS011;19094;50.972;3.538;2023-12-14T10:17:20;19.00;;;9.48;;
32705;SDS011;19094;50.972;3.538;2023-12-14T10:19:47;23.35;;;10.75;;
32705;SDS011;19094;50.972;3.538;2023-12-14T10:22:14;24.67;;;11.18;;
32705;SDS011;19094;50.972;3.538;2023-12-14T10:24:45;24.40;;;11.10;;
32705;SDS011;19094;50.972;3.538;2023-12-14T10:27:13;21.73;;;10.18;;
32705;SDS011;19094;50.972;3.538;2023-12-14T10:29:41;27.30;;;11.07;;
32705;SDS011;19094;50.972;3.538;2023-12-14T10:32:07;27.08;;;11.40;;
32705;SDS011;19094;50.972;3.538;2023-12-14T10:34:35;24.35;;;11.55;;
32705;SDS011;19094;50.972;3.538;2023-12-14T10:37:01;28.23;;;12.52;;
32705;SDS011;19094;50.972;3.538;2023-12-14T10:39:31;29.45;;;12.18;;
32705;SDS011;19094;50.972;3.538;2023-12-14T10:41:58;28.15;;;11.55;;
32705;SDS011;19094;50.972;3.538;2023-12-14T10:44:32;28.10;;;11.95;;
32705;SDS011;19094;50.972;3.538;2023-12-14T10:47:01;21.50;;;11.38;;
32705;SDS011;19094;50.972;3.538;2023-12-14T10:49:29;22.77;;;11.43;;
32705;SDS011;19094;50.972;3.538;2023-12-14T10:51:56;25.20;;;10.68;;
32705;SDS011;19094;50.972;3.538;2023-12-14T10:54:24;28.40;;;11.45;;
32705;SDS011;19094;50.972;3.538;2023-12-14T10:56:54;24.08;;;11.02;;
32705;SDS011;19094;50.972;3.538;2023-12-14T10:59:21;21.38;;;10.57;;
32705;SDS011;19094;50.972;3.538;2023-12-14T11:01:52;25.05;;;11.15;;
32705;SDS011;19094;50.972;3.538;2023-12-14T11:04:22;21.25;;;11.02;;
32705;SDS011;19094;50.972;3.538;2023-12-14T11:06:49;22.02;;;10.43;;
32705;SDS011;19094;50.972;3.538;2023-12-14T11:09:16;23.60;;;10.25;;
32705;SDS011;19094;50.972;3.538;2023-12-14T11:14:29;21.00;;;10.75;;
32705;SDS011;19094;50.972;3.538;2023-12-14T11:16:55;29.63;;;10.38;;
32705;SDS011;19094;50.972;3.538;2023-12-14T11:19:27;20.17;;;9.70;;
32705;SDS011;19094;50.972;3.538;2023-12-14T11:24:22;23.20;;;10.00;;
32705;SDS011;19094;50.972;3.538;2023-12-14T11:26:49;22.95;;;10.75;;
32705;SDS011;19094;50.972;3.538;2023-12-14T11:29:15;19.23;;;9.77;;
32705;SDS011;19094;50.972;3.538;2023-12-14T11:31:42;23.20;;;10.57;;
32705;SDS011;19094;50.972;3.538;2023-12-14T11:34:07;18.20;;;9.38;;
32705;SDS011;19094;50.972;3.538;2023-12-14T11:36:33;22.45;;;9.82;;
32705;SDS011;19094;50.972;3.538;2023-12-14T11:39:00;18.98;;;9.50;;
32705;SDS011;19094;50.972;3.538;2023-12-14T11:41:26;20.60;;;9.20;;
32705;SDS011;19094;50.972;3.538;2023-12-14T11:43:54;18.88;;;7.63;;
32705;SDS011;19094;50.972;3.538;2023-12-14T11:46:20;14.40;;;7.15;;
32705;SDS011;19094;50.972;3.538;2023-12-14T11:48:46;23.13;;;8.10;;
32705;SDS011;19094;50.972;3.538;2023-12-14T11:51:16;14.73;;;7.40;;
32705;SDS011;19094;50.972;3.538;2023-12-14T11:53:46;19.20;;;8.30;;
32705;SDS011;19094;50.972;3.538;2023-12-14T11:56:18;22.35;;;8.48;;
32705;SDS011;19094;50.972;3.538;2023-12-14T11:58:45;20.42;;;7.82;;
32705;SDS011;19094;50.972;3.538;2023-12-14T12:01:13;23.30;;;8.43;;
32705;SDS011;19094;50.972;3.538;2023-12-14T12:03:43;17.95;;;8.15;;
32705;SDS011;19094;50.972;3.538;2023-12-14T12:09:06;15.40;;;8.13;;
32705;SDS011;19094;50.972;3.538;2023-12-14T12:11:35;18.63;;;8.35;;
32705;SDS011;19094;50.972;3.538;2023-12-14T12:14:02;15.32;;;7.30;;
32705;SDS011;19094;50.972;3.538;2023-12-14T12:16:30;19.20;;;8.07;;
32705;SDS011;19094;50.972;3.538;2023-12-14T12:18:56;16.80;;;6.57;;
32705;SDS011;19094;50.972;3.538;2023-12-14T12:21:22;14.82;;;7.15;;
32705;SDS011;19094;50.972;3.538;2023-12-14T12:23:48;19.13;;;7.10;;
32705;SDS011;19094;50.972;3.538;2023-12-14T12:26:14;17.70;;;6.70;;
32705;SDS011;19094;50.972;3.538;2023-12-14T12:28:40;16.60;;;5.65;;
32705;SDS011;19094;50.972;3.538;2023-12-14T12:31:06;11.48;;;5.20;;
32705;SDS011;19094;50.972;3.538;2023-12-14T12:33:31;22.10;;;5.10;;
32705;SDS011;19094;50.972;3.538;2023-12-14T12:36:02;11.15;;;3.70;;
32705;SDS011;19094;50.972;3.538;2023-12-14T12:38:28;8.40;;;2.80;;
32705;SDS011;19094;50.972;3.538;2023-12-14T12:40:54;7.13;;;3.13;;
32705;SDS011;19094;50.972;3.538;2023-12-14T12:43:20;13.82;;;3.60;;
32705;SDS011;19094;50.972;3.538;2023-12-14T12:45:46;12.35;;;3.85;;
32705;SDS011;19094;50.972;3.538;2023-12-14T12:48:13;10.00;;;3.15;;
32705;SDS011;19094;50.972;3.538;2023-12-14T12:50:39;6.43;;;2.85;;
32705;SDS011;19094;50.972;3.538;2023-12-14T12:53:05;7.35;;;2.85;;
32705;SDS011;19094;50.972;3.538;2023-12-14T12:55:31;5.78;;;2.30;;
32705;SDS011;19094;50.972;3.538;2023-12-14T12:57:57;9.55;;;3.00;;
32705;SDS011;19094;50.972;3.538;2023-12-14T13:00:25;5.60;;;2.60;;
32705;SDS011;19094;50.972;3.538;2023-12-14T13:02:51;15.38;;;3.13;;
32705;SDS011;19094;50.972;3.538;2023-12-14T13:05:16;11.63;;;3.35;;
32705;SDS011;19094;50.972;3.538;2023-12-14T13:07:44;13.50;;;3.63;;
32705;SDS011;19094;50.972;3.538;2023-12-14T13:10:11;8.65;;;3.17;;
32705;SDS011;19094;50.972;3.538;2023-12-14T13:12:36;7.78;;;2.65;;
32705;SDS011;19094;50.972;3.538;2023-12-14T13:15:02;8.45;;;2.78;;
32705;SDS011;19094;50.972;3.538;2023-12-14T13:17:30;9.90;;;2.83;;
32705;SDS011;19094;50.972;3.538;2023-12-14T13:19:56;7.70;;;2.33;;
32705;SDS011;19094;50.972;3.538;2023-12-14T13:22:21;16.17;;;3.53;;
32705;SDS011;19094;50.972;3.538;2023-12-14T13:24:47;12.88;;;2.83;;
32705;SDS011;19094;50.972;3.538;2023-12-14T13:27:15;6.80;;;2.35;;
32705;SDS011;19094;50.972;3.538;2023-12-14T13:29:40;8.73;;;2.97;;
32705;SDS011;19094;50.972;3.538;2023-12-14T13:32:06;15.27;;;2.88;;
32705;SDS011;19094;50.972;3.538;2023-12-14T13:34:32;11.07;;;3.05;;
32705;SDS011;19094;50.972;3.538;2023-12-14T13:36:59;10.45;;;3.00;;
32705;SDS011;19094;50.972;3.538;2023-12-14T13:39:26;7.97;;;2.35;;
32705;SDS011;19094;50.972;3.538;2023-12-14T13:41:52;10.45;;;3.33;;
32705;SDS011;19094;50.972;3.538;2023-12-14T13:44:18;11.25;;;3.05;;
32705;SDS011;19094;50.972;3.538;2023-12-14T13:46:44;10.68;;;3.10;;
32705;SDS011;19094;50.972;3.538;2023-12-14T13:49:09;10.98;;;2.55;;
32705;SDS011;19094;50.972;3.538;2023-12-14T13:51:35;15.82;;;2.72;;
32705;SDS011;19094;50.972;3.538;2023-12-14T13:54:01;12.00;;;3.13;;
32705;SDS011;19094;50.972;3.538;2023-12-14T13:56:27;18.05;;;2.83;;
32705;SDS011;19094;50.972;3.538;2023-12-14T13:58:53;11.77;;;2.67;;
32705;SDS011;19094;50.972;3.538;2023-12-14T14:01:18;9.27;;;2.60;;
32705;SDS011;19094;50.972;3.538;2023-12-14T14:03:44;9.23;;;2.83;;
32705;SDS011;19094;50.972;3.538;2023-12-14T14:06:12;8.88;;;2.55;;
32705;SDS011;19094;50.972;3.538;2023-12-14T14:08:38;10.75;;;2.88;;
32705;SDS011;19094;50.972;3.538;2023-12-14T14:11:04;11.98;;;2.88;;
32705;SDS011;19094;50.972;3.538;2023-12-14T14:13:30;12.70;;;2.83;;
32705;SDS011;19094;50.972;3.538;2023-12-14T14:15:57;8.45;;;3.08;;
32705;SDS011;19094;50.972;3.538;2023-12-14T14:18:24;8.82;;;3.03;;
32705;SDS011;19094;50.972;3.538;2023-12-14T14:20:50;11.25;;;2.92;;
32705;SDS011;19094;50.972;3.538;2023-12-14T14:23:15;7.90;;;3.05;;
32705;SDS011;19094;50.972;3.538;2023-12-14T14:25:41;9.95;;;2.90;;
32705;SDS011;19094;50.972;3.538;2023-12-14T14:28:07;12.10;;;2.92;;
32705;SDS011;19094;50.972;3.538;2023-12-14T14:30:33;10.02;;;2.88;;
32705;SDS011;19094;50.972;3.538;2023-12-14T14:32:59;10.07;;;2.20;;
32705;SDS011;19094;50.972;3.538;2023-12-14T14:35:27;6.47;;;2.30;;
32705;SDS011;19094;50.972;3.538;2023-12-14T14:37:54;6.43;;;2.42;;